Time;durP1;ratioP1;P1;durP2;ratioP2;P2;SDS_P1;SDS_P2;PMS_P1;PMS_P2;Temp;Humidity;BMP_temperature;BMP_pressure;BME280_temperature;BME280_humidity;BME280_pressure;Samples;Min_cycle;Max_cycle;Signal;HPM_P1;HPM_P2
2021/10/30 00:03:16;;;;;;;23.93;13.83;;;;;;;8.47;67.16;100611.78;5172199;56;1139528;-74
2021/10/30 00:08:24;;;;;;;32.07;15.37;;;;;;;8.44;67.38;100611.98;5170119;56;1137218;-75
2021/10/30 00:13:30;;;;;;;23.17;12.80;;;;;;;8.41;67.50;100605.59;5166215;56;1136934;-74
2021/10/30 00:18:35;;;;;;;27.57;13.27;;;;;;;8.39;67.62;100612.31;5172381;56;1136983;-75
2021/10/30 00:23:41;;;;;;;24.93;11.97;;;;;;;8.39;67.63;100605.73;5172823;56;1136978;-76
2021/10/30 00:28:47;;;;;;;24.47;13.10;;;;;;;8.41;67.72;100606.91;5166733;56;1136990;-76
2021/10/30 00:33:54;;;;;;;21.77;12.10;;;;;;;8.42;67.73;100613.41;5177115;56;1137028;-74
2021/10/30 00:38:59;;;;;;;25.83;13.77;;;;;;;8.40;67.67;100613.98;5182807;56;1136924;-76
2021/10/30 00:44:12;;;;;;;36.73;15.83;;;;;;;8.33;67.72;100603.97;5177977;56;1137151;-75
2021/10/30 00:49:23;;;;;;;56.10;19.70;;;;;;;8.27;67.68;100609.13;5161156;57;1136965;-75
2021/10/30 00:54:28;;;;;;;81.20;29.20;;;;;;;8.19;67.62;100607.96;5179777;56;1137004;-74
2021/10/30 00:59:36;;;;;;;59.17;21.47;;;;;;;8.10;67.81;100599.70;5200199;56;1136994;-75
2021/10/30 01:04:41;;;;;;;58.10;21.33;;;;;;;7.99;67.76;100602.20;5146191;56;1136943;-75
2021/10/30 01:09:51;;;;;;;65.50;24.00;;;;;;;7.82;68.01;100602.45;5144595;56;1137024;-74
2021/10/30 01:14:58;;;;;;;57.50;23.20;;;;;;;7.74;68.38;100594.22;5145311;56;1136896;-76
2021/10/30 01:20:05;;;;;;;52.20;21.30;;;;;;;7.70;68.54;100596.20;5144107;56;1134910;-76
2021/10/30 01:25:12;;;;;;;53.80;20.40;;;;;;;7.62;68.68;100593.23;5182995;56;1134878;-76
2021/10/30 01:30:20;;;;;;;34.73;16.50;;;;;;;7.50;68.69;100590.52;5145236;56;1139167;-75
2021/10/30 01:35:32;;;;;;;35.03;14.67;;;;;;;7.36;68.88;100591.39;5145985;56;1139071;-76
2021/10/30 01:40:50;;;;;;;31.50;14.25;;;;;;;7.15;68.89;100596.70;5145465;57;1139020;-75
2021/10/30 01:45:56;;;;;;;31.93;15.10;;;;;;;6.96;69.34;100586.47;5145097;57;1139267;-75
2021/10/30 01:51:04;;;;;;;34.60;14.97;;;;;;;6.90;69.70;100582.42;5145035;57;1141057;-74
2021/10/30 01:56:11;;;;;;;36.28;16.77;;;;;;;6.95;70.13;100587.41;5148039;56;1141311;-74
2021/10/30 02:01:17;;;;;;;44.03;17.27;;;;;;;7.04;70.66;100585.04;5151176;57;1141201;-74
2021/10/30 02:06:23;;;;;;;40.70;17.43;;;;;;;7.15;70.59;100584.86;5151097;57;1139063;-74
2021/10/30 02:11:31;;;;;;;33.17;15.97;;;;;;;7.22;70.74;100577.80;5151248;57;1138994;-76
2021/10/30 02:16:37;;;;;;;35.63;15.77;;;;;;;7.26;70.73;100582.40;5151051;57;1138850;-74
2021/10/30 02:21:42;;;;;;;43.25;19.40;;;;;;;7.23;70.43;100587.84;5151011;57;1138967;-74
2021/10/30 02:26:49;;;;;;;47.80;18.67;;;;;;;7.15;70.38;100594.91;5151344;57;1139091;-75
2021/10/30 02:31:54;;;;;;;48.13;19.20;;;;;;;7.03;70.29;100595.65;5151456;57;1139415;-74
2021/10/30 02:37:01;;;;;;;51.57;18.33;;;;;;;6.94;70.52;100597.55;5151723;57;1139076;-75
2021/10/30 02:42:07;;;;;;;34.37;16.90;;;;;;;6.73;70.42;100598.36;5161304;56;1139113;-74
2021/10/30 02:47:13;;;;;;;39.67;16.13;;;;;;;6.66;71.00;100608.42;5161439;57;1139134;-74
2021/10/30 02:52:19;;;;;;;32.77;14.80;;;;;;;6.61;71.12;100607.84;5161540;56;1139272;-76
2021/10/30 02:57:26;;;;;;;32.37;15.00;;;;;;;6.66;71.45;100612.36;5159068;56;1140694;-74
2021/10/30 03:02:34;;;;;;;35.27;17.07;;;;;;;6.72;71.61;100607.69;5170280;56;1141036;-74
2021/10/30 03:07:40;;;;;;;37.53;17.63;;;;;;;6.77;71.86;100608.23;5186322;56;1139021;-76
2021/10/30 03:12:45;;;;;;;39.00;17.27;;;;;;;6.76;71.50;100604.76;5174132;56;1139165;-74
2021/10/30 03:17:51;;;;;;;42.47;16.27;;;;;;;6.64;71.40;100604.19;5161546;57;1139056;-76
2021/10/30 03:22:58;;;;;;;31.97;15.65;;;;;;;6.50;71.48;100601.08;5177937;56;1139149;-75
2021/10/30 03:28:04;;;;;;;29.07;14.63;;;;;;;6.46;71.78;100611.84;5172938;56;1139278;-76
2021/10/30 03:33:11;;;;;;;36.63;14.63;;;;;;;6.34;71.68;100610.80;5160706;57;1139223;-76
2021/10/30 03:38:17;;;;;;;25.73;12.50;;;;;;;6.14;71.56;100617.19;5198049;56;1138915;-76
2021/10/30 03:43:23;;;;;;;22.63;12.50;;;;;;;5.86;71.86;100620.52;5164096;56;1139074;-76
2021/10/30 03:48:31;;;;;;;24.05;11.85;;;;;;;5.72;72.35;100622.23;5161121;56;1139064;-74
2021/10/30 03:53:36;;;;;;;21.20;11.10;;;;;;;5.72;72.83;100630.10;5161322;57;1141080;-75
2021/10/30 03:58:42;;;;;;;31.50;13.47;;;;;;;5.61;72.67;100628.93;5161117;56;1141123;-76
2021/10/30 04:03:48;;;;;;;25.23;12.73;;;;;;;5.53;73.27;100628.48;5161161;56;1141116;-74
2021/10/30 04:08:54;;;;;;;31.90;14.23;;;;;;;5.59;73.89;100636.50;5161235;56;1139263;-74
2021/10/30 04:14:00;;;;;;;52.80;21.42;;;;;;;5.44;73.62;100626.84;5161094;56;1139064;-74
2021/10/30 04:19:06;;;;;;;169.00;47.77;;;;;;;5.42;74.19;100624.77;5161156;56;1139319;-74
2021/10/30 04:24:12;;;;;;;94.42;25.68;;;;;;;5.44;74.70;100624.22;5160630;56;1139047;-76
2021/10/30 04:29:17;;;;;;;84.80;24.40;;;;;;;5.47;74.77;100618.35;5161350;56;1137207;-74
2021/10/30 04:34:34;;;;;;;57.27;20.33;;;;;;;5.51;74.37;100613.30;5161025;56;1139058;-74
2021/10/30 04:39:31;;;;;;;45.70;21.40;;;;;;;5.55;74.41;100610.05;5159140;57;1139039;-75
2021/10/30 04:44:37;;;;;;;58.57;22.27;;;;;;;5.58;74.35;100606.79;5161129;57;1137025;-75
2021/10/30 04:49:46;;;;;;;48.40;19.23;;;;;;;5.51;74.44;100608.05;5160856;57;1137337;-75
2021/10/30 04:54:51;;;;;;;51.57;24.20;;;;;;;5.41;74.30;100603.40;5161020;57;1136946;-75
2021/10/30 04:59:57;;;;;;;48.87;22.57;;;;;;;5.34;74.85;100595.05;5156824;57;1137050;-74
2021/10/30 05:05:03;;;;;;;58.13;22.53;;;;;;;5.37;75.58;100593.53;5155476;57;1136949;-76
2021/10/30 05:10:10;;;;;;;49.77;19.73;;;;;;;5.40;75.65;100589.44;5155262;57;1137238;-75
2021/10/30 05:15:16;;;;;;;42.47;19.70;;;;;;;5.49;76.15;100590.73;5155452;57;1136965;-74
2021/10/30 05:20:22;;;;;;;44.67;20.83;;;;;;;5.62;75.99;100593.89;5155411;57;1139478;-74
2021/10/30 05:25:28;;;;;;;38.43;16.60;;;;;;;5.76;75.99;100590.95;5155379;57;1138927;-76
2021/10/30 05:30:33;;;;;;;35.37;17.43;;;;;;;5.87;76.24;100592.50;5156098;57;1136810;-74
2021/10/30 05:35:39;;;;;;;35.30;16.90;;;;;;;5.93;76.01;100597.44;5173642;56;1136936;-74
2021/10/30 05:40:48;;;;;;;38.37;17.87;;;;;;;5.93;75.79;100598.75;5215416;56;1137013;-74
2021/10/30 05:45:53;;;;;;;38.83;17.67;;;;;;;5.91;75.47;100601.46;5212159;56;1136930;-76
2021/10/30 05:50:59;;;;;;;39.20;15.73;;;;;;;5.79;75.25;100598.66;5184523;56;1134897;-76
2021/10/30 05:56:06;;;;;;;46.23;19.80;;;;;;;5.63;75.18;100619.66;5194552;56;1134844;-74
2021/10/30 06:01:15;;;;;;;73.62;25.88;;;;;;;5.56;75.52;100620.92;5180926;56;1139023;-76
2021/10/30 06:06:21;;;;;;;43.13;17.73;;;;;;;5.49;75.51;100620.43;5133126;56;1139288;-76
2021/10/30 06:11:27;;;;;;;45.90;18.73;;;;;;;5.53;75.97;100624.55;5171303;56;1141379;-74
2021/10/30 06:16:36;;;;;;;54.13;23.20;;;;;;;5.60;76.36;100622.45;5175275;56;1141116;-75
2021/10/30 06:21:42;;;;;;;77.50;28.00;;;;;;;5.62;76.03;100626.69;5176956;56;1138929;-75
2021/10/30 06:26:48;;;;;;;39.63;16.53;;;;;;;5.62;76.40;100626.69;5169196;56;1138991;-74
2021/10/30 06:31:54;;;;;;;39.23;17.43;;;;;;;5.54;76.35;100626.71;5171091;56;1139017;-75
2021/10/30 06:36:59;;;;;;;39.53;18.00;;;;;;;5.54;76.56;100631.96;5173529;56;1139299;-75
2021/10/30 06:42:06;;;;;;;45.30;16.33;;;;;;;5.58;76.86;100637.42;5177655;56;1139009;-74
2021/10/30 06:47:16;;;;;;;51.43;20.17;;;;;;;5.65;77.16;100630.42;5172472;56;1139550;-76
2021/10/30 06:52:23;;;;;;;47.47;20.60;;;;;;;5.83;77.35;100633.81;5144351;57;1141240;-74
2021/10/30 06:57:31;;;;;;;44.58;22.25;;;;;;;6.03;77.85;100633.19;5217260;56;1141237;-74
2021/10/30 07:02:38;;;;;;;41.13;19.80;;;;;;;6.40;78.77;100638.03;5242969;56;1139041;-74
2021/10/30 07:07:44;;;;;;;34.17;18.80;;;;;;;6.77;78.66;100631.42;5205677;56;1139028;-74
2021/10/30 07:12:49;;;;;;;29.93;15.60;;;;;;;7.17;78.34;100627.23;5146330;57;1139241;-74
2021/10/30 07:17:55;;;;;;;33.03;17.07;;;;;;;7.53;77.63;100614.86;5081377;57;1139320;-75
2021/10/30 07:23:01;;;;;;;26.67;15.27;;;;;;;7.89;77.34;100612.13;5073839;57;1139415;-75
2021/10/30 07:28:08;;;;;;;27.20;14.13;;;;;;;8.19;76.21;100612.76;5063783;57;1139201;-76
2021/10/30 07:33:13;;;;;;;26.23;14.37;;;;;;;8.45;75.08;100602.66;5065421;57;1139053;-76
2021/10/30 07:38:22;;;;;;;27.80;15.03;;;;;;;8.66;73.77;100587.66;5134438;57;1139089;-76
2021/10/30 07:43:27;;;;;;;24.17;15.53;;;;;;;8.85;73.64;100592.05;5145871;57;1139273;-76
2021/10/30 07:48:33;;;;;;;32.73;16.53;;;;;;;9.08;73.32;100598.34;5151961;57;1138514;-76
2021/10/30 07:53:39;;;;;;;27.33;15.33;;;;;;;9.31;73.14;100592.78;5152173;57;1141405;-76
2021/10/30 07:58:45;;;;;;;22.77;15.10;;;;;;;9.59;73.14;100595.59;5152240;57;1141371;-76
2021/10/30 08:03:50;;;;;;;21.27;13.43;;;;;;;9.87;71.84;100605.84;5150455;57;1141186;-75
2021/10/30 08:08:56;;;;;;;26.17;16.23;;;;;;;10.15;71.78;100603.31;5157665;56;1141117;-77
2021/10/30 08:14:03;;;;;;;21.23;13.17;;;;;;;10.32;71.06;100608.70;5152504;56;1143244;-77
2021/10/30 08:19:09;;;;;;;24.03;14.03;;;;;;;10.43;70.52;100598.99;5168791;56;1143450;-76
2021/10/30 08:24:15;;;;;;;25.13;15.60;;;;;;;10.57;68.74;100603.23;5164358;56;1143507;-76
2021/10/30 08:29:21;;;;;;;26.03;15.57;;;;;;;10.72;68.14;100590.16;5185689;56;1143095;-77
2021/10/30 08:34:29;;;;;;;23.90;14.87;;;;;;;10.81;68.05;100584.66;5169168;56;1143687;-77
2021/10/30 08:39:35;;;;;;;26.23;15.20;;;;;;;10.90;68.02;100576.83;5167724;56;1143129;-77
2021/10/30 08:44:42;;;;;;;24.57;14.77;;;;;;;11.04;68.47;100559.87;5164055;56;1143264;-76
2021/10/30 08:49:48;;;;;;;27.43;15.77;;;;;;;11.22;68.18;100549.63;5161745;56;1143430;-77
2021/10/30 08:54:53;;;;;;;28.33;15.80;;;;;;;11.39;68.38;100536.37;5152117;56;1143501;-77
2021/10/30 09:00:19;;;;;;;20.97;15.50;;;;;;;11.61;68.13;100534.48;5153333;56;1143470;-77
2021/10/30 09:05:25;;;;;;;26.43;15.40;;;;;;;11.85;68.34;100527.70;5157742;56;1141033;-77
2021/10/30 09:10:47;;;;;;;24.13;14.00;;;;;;;12.11;68.55;100522.88;5186894;56;1141071;-77
2021/10/30 09:15:54;;;;;;;26.73;13.27;;;;;;;12.32;68.20;100520.23;5169877;56;1141430;-77
2021/10/30 09:21:14;;;;;;;29.50;15.67;;;;;;;12.47;67.08;100518.92;5167624;56;1141129;-77
2021/10/30 09:26:27;;;;;;;28.97;13.50;;;;;;;12.55;66.73;100507.16;5161875;56;1141673;-77
2021/10/30 09:31:34;;;;;;;20.52;12.00;;;;;;;12.65;66.54;100510.72;5183744;56;1141615;-75
2021/10/30 09:36:49;;;;;;;15.90;12.03;;;;;;;12.72;65.49;100504.38;5207494;56;1141108;-76
2021/10/30 09:41:52;;;;;;;21.40;13.07;;;;;;;12.84;64.94;100494.02;5161720;56;1139294;-78
2021/10/30 09:46:59;;;;;;;23.40;13.17;;;;;;;12.98;64.69;100485.71;5162151;56;1143843;-79
2021/10/30 09:52:12;;;;;;;19.80;11.87;;;;;;;13.10;63.11;100490.42;5150335;57;1143270;-77
2021/10/30 09:57:31;;;;;;;19.60;12.47;;;;;;;13.21;63.24;100480.19;5149996;57;1143781;-77
2021/10/30 10:02:38;;;;;;;17.37;10.67;;;;;;;13.29;62.43;100473.73;5148657;57;1143125;-77
2021/10/30 10:07:44;;;;;;;22.47;12.13;;;;;;;13.37;61.24;100463.23;5144714;57;1143213;-77
2021/10/30 10:12:53;;;;;;;26.87;16.03;;;;;;;13.45;61.05;100465.19;5170278;56;1143414;-77
2021/10/30 10:18:01;;;;;;;21.80;13.07;;;;;;;13.54;59.77;100454.58;5193741;56;1143297;-77
2021/10/30 10:23:07;;;;;;;21.60;11.73;;;;;;;13.63;59.95;100451.08;5232901;56;1142781;-77
2021/10/30 10:28:36;;;;;;;37.47;17.97;;;;;;;13.73;59.39;100443.11;5233099;56;1143236;-77
2021/10/30 10:33:43;;;;;;;29.77;13.87;;;;;;;13.82;60.26;100436.09;5215452;56;1143209;-77
2021/10/30 10:39:05;;;;;;;37.83;14.30;;;;;;;13.93;59.72;100430.13;5191902;56;1143282;-77
2021/10/30 10:44:43;;;;;;;35.97;13.87;;;;;;;14.04;58.68;100418.02;5179318;56;1143235;-77
2021/10/30 10:49:52;;;;;;;24.10;11.27;;;;;;;14.13;57.63;100408.33;5071174;58;1143205;-77
2021/10/30 10:55:02;;;;;;;21.83;11.97;;;;;;;14.29;57.14;100390.42;5112554;56;1143171;-74
2021/10/30 11:00:12;;;;;;;22.40;12.03;;;;;;;14.45;56.69;100378.70;5191238;56;1143189;-74
2021/10/30 11:05:36;;;;;;;15.70;10.03;;;;;;;14.60;56.59;100377.22;5199945;56;1143549;-74
2021/10/30 11:10:43;;;;;;;20.93;11.33;;;;;;;14.70;54.31;100370.50;5168544;56;1141205;-75
2021/10/30 11:15:56;;;;;;;38.33;17.55;;;;;;;14.84;55.77;100376.64;5074535;57;1141164;-78
2021/10/30 11:21:21;;;;;;;23.90;11.33;;;;;;;14.92;55.90;100364.77;5100195;57;1141175;-78
2021/10/30 11:26:35;;;;;;;31.20;13.58;;;;;;;14.98;54.92;100365.97;5149283;56;1141151;-78
2021/10/30 11:31:43;;;;;;;22.13;14.00;;;;;;;14.88;56.30;100367.88;5152211;56;1141053;-77
2021/10/30 11:36:55;;;;;;;20.03;13.60;;;;;;;14.68;56.77;100364.48;5152468;56;1141408;-77
2021/10/30 11:41:57;;;;;;;18.07;13.00;;;;;;;14.56;57.38;100360.36;5152477;56;1141518;-78
2021/10/30 11:47:03;;;;;;;28.17;13.18;;;;;;;14.49;57.26;100355.30;5145137;56;1141108;-77
2021/10/30 11:52:11;;;;;;;27.03;12.70;;;;;;;14.45;58.06;100345.44;5142392;56;1141458;-76
2021/10/30 11:57:17;;;;;;;19.40;12.43;;;;;;;14.42;57.83;100345.72;5135622;56;1139210;-77
2021/10/30 12:02:23;;;;;;;25.47;12.57;;;;;;;14.42;57.49;100344.39;5128850;57;1264563;-77
2021/10/30 12:07:29;;;;;;;21.40;12.70;;;;;;;14.44;58.00;100337.11;5119263;57;1143094;-78
2021/10/30 12:12:35;;;;;;;20.77;11.85;;;;;;;14.43;57.93;100319.47;5079629;58;1143496;-78
2021/10/30 12:17:40;;;;;;;31.17;13.83;;;;;;;14.42;57.58;100332.42;5088031;57;1143349;-77
2021/10/30 12:22:47;;;;;;;27.87;12.53;;;;;;;14.39;57.11;100320.21;5112916;57;1143187;-76
2021/10/30 12:27:55;;;;;;;44.53;22.90;;;;;;;14.39;56.26;100306.07;5145183;56;1143216;-76
2021/10/30 12:33:16;;;;;;;27.93;13.17;;;;;;;14.36;57.09;100313.85;5164773;56;1143254;-75
2021/10/30 12:38:30;;;;;;;23.07;13.37;;;;;;;14.34;57.10;100311.86;5171054;56;1143616;-76
2021/10/30 12:43:36;;;;;;;19.43;12.60;;;;;;;14.36;57.45;100301.07;5230145;55;1143391;-76
2021/10/30 12:48:45;;;;;;;21.03;13.33;;;;;;;14.34;57.24;100275.11;5229690;55;1143354;-76
2021/10/30 12:53:54;;;;;;;25.67;12.17;;;;;;;14.36;57.42;100274.47;5301496;55;1143196;-76
2021/10/30 12:59:02;;;;;;;19.20;12.13;;;;;;;14.35;58.08;100270.13;5244600;55;1143356;-77
2021/10/30 13:04:12;;;;;;;26.50;12.03;;;;;;;14.36;58.18;100253.98;5235169;55;1143175;-76
2021/10/30 13:09:20;;;;;;;23.50;12.23;;;;;;;14.35;58.29;100240.37;5132671;56;1143324;-76
2021/10/30 13:14:26;;;;;;;22.87;11.47;;;;;;;14.35;58.20;100235.55;5306681;55;1143491;-77
2021/10/30 13:19:33;;;;;;;21.07;10.83;;;;;;;14.35;58.32;100231.06;5161266;56;1143210;-77
2021/10/30 13:24:42;;;;;;;20.97;11.83;;;;;;;14.33;58.95;100227.71;5291863;55;1143222;-77
2021/10/30 13:29:48;;;;;;;26.13;13.83;;;;;;;14.33;58.68;100217.56;5225412;55;1143207;-77
2021/10/30 13:34:53;;;;;;;29.25;12.93;;;;;;;14.32;58.91;100214.06;5222953;55;1143255;-77
2021/10/30 13:39:59;;;;;;;76.53;40.40;;;;;;;14.32;59.14;100209.23;5144667;56;1143315;-77
2021/10/30 13:45:06;;;;;;;37.10;20.00;;;;;;;14.32;59.41;100217.22;5217773;56;1143495;-77
2021/10/30 13:50:13;;;;;;;97.50;53.43;;;;;;;14.33;59.28;100214.41;5192232;56;1143734;-77
2021/10/30 13:55:20;;;;;;;38.30;20.13;;;;;;;14.34;59.70;100210.77;5147788;56;1143432;-77
2021/10/30 14:00:26;;;;;;;33.67;13.93;;;;;;;14.37;59.72;100213.59;5171100;56;1143335;-78
2021/10/30 14:05:32;;;;;;;21.37;12.70;;;;;;;14.39;59.95;100211.13;5205517;56;1143223;-77
2021/10/30 14:10:41;;;;;;;23.07;13.20;;;;;;;14.42;60.19;100208.69;5179939;56;1143529;-77
2021/10/30 14:15:45;;;;;;;55.53;26.60;;;;;;;14.41;60.10;100201.70;5131726;56;1143186;-77
2021/10/30 14:20:51;;;;;;;51.68;25.20;;;;;;;14.43;60.22;100203.72;5180035;56;1143352;-77
2021/10/30 14:25:58;;;;;;;47.40;23.33;;;;;;;14.43;60.43;100199.23;5193031;56;1143598;-77
2021/10/30 14:31:06;;;;;;;26.87;14.63;;;;;;;14.42;60.88;100199.38;5171283;56;1143572;-77
2021/10/30 14:36:12;;;;;;;24.60;14.07;;;;;;;14.37;59.99;100193.14;5144894;56;1143223;-77
2021/10/30 14:41:18;;;;;;;30.57;13.20;;;;;;;14.34;60.35;100187.31;5171659;56;1141017;-77
2021/10/30 14:46:26;;;;;;;19.90;12.10;;;;;;;14.29;60.48;100177.11;5166639;56;1141102;-78
2021/10/30 14:51:31;;;;;;;21.53;13.03;;;;;;;14.27;60.48;100191.05;5179360;56;1141066;-79
2021/10/30 14:56:37;;;;;;;24.57;14.33;;;;;;;14.27;60.46;100189.72;5177607;56;1141505;-78
2021/10/30 15:01:43;;;;;;;24.97;12.23;;;;;;;14.49;59.77;100177.84;5182627;56;1141117;-77
2021/10/30 15:06:49;;;;;;;28.43;12.90;;;;;;;14.46;59.69;100168.83;5191857;56;1141317;-78
2021/10/30 15:11:54;;;;;;;27.20;11.60;;;;;;;14.38;59.57;100166.05;5167967;56;1141087;-78
2021/10/30 15:17:00;;;;;;;24.23;11.67;;;;;;;14.30;59.66;100163.32;5141503;56;1141401;-77
2021/10/30 15:22:06;;;;;;;24.33;11.47;;;;;;;14.18;59.91;100156.06;5142443;56;1141408;-76
2021/10/30 15:27:14;;;;;;;45.05;21.35;;;;;;;14.07;60.17;100154.92;5142267;56;1141315;-77
2021/10/30 15:32:20;;;;;;;33.90;17.40;;;;;;;13.99;60.31;100163.67;5168678;56;1141499;-76
2021/10/30 15:37:25;;;;;;;29.70;15.03;;;;;;;13.93;60.46;100152.29;5175194;56;1141572;-77
2021/10/30 15:42:31;;;;;;;26.00;14.57;;;;;;;13.88;60.33;100137.30;5137216;57;1141027;-76
2021/10/30 15:47:36;;;;;;;45.93;21.43;;;;;;;13.88;59.58;100137.30;5158199;56;1141159;-78
2021/10/30 15:52:43;;;;;;;28.80;18.43;;;;;;;13.92;59.98;100136.48;5190399;55;1141203;-77
2021/10/30 15:57:49;;;;;;;25.87;13.87;;;;;;;13.93;59.70;100139.00;5154744;56;1141420;-77
2021/10/30 16:02:55;;;;;;;25.13;13.57;;;;;;;13.95;59.68;100133.04;5131956;56;1140825;-78
2021/10/30 16:08:01;;;;;;;22.63;11.10;;;;;;;14.03;59.22;100118.52;5134192;56;1141384;-76
2021/10/30 16:13:07;;;;;;;27.60;12.30;;;;;;;14.07;58.56;100113.71;5143429;56;1139243;-77
2021/10/30 16:18:14;;;;;;;40.17;18.60;;;;;;;14.08;58.28;100106.08;5143729;56;1139180;-77
2021/10/30 16:23:19;;;;;;;26.17;12.17;;;;;;;14.10;58.72;100100.11;5143616;56;1143349;-77
2021/10/30 16:28:25;;;;;;;25.03;13.70;;;;;;;14.09;57.91;100101.10;5143619;56;1143293;-76
2021/10/30 16:33:31;;;;;;;31.73;17.60;;;;;;;14.08;57.84;100097.60;5145413;56;1143241;-78
2021/10/30 16:38:37;;;;;;;26.37;13.30;;;;;;;14.09;56.91;100086.48;5219561;55;1143232;-77
2021/10/30 16:43:43;;;;;;;24.90;12.23;;;;;;;14.09;56.84;100080.66;5230965;55;1143245;-76
2021/10/30 16:48:48;;;;;;;20.50;10.77;;;;;;;14.11;56.37;100071.20;5230060;55;1143125;-76
2021/10/30 16:53:54;;;;;;;25.80;12.27;;;;;;;14.12;55.59;100070.71;5230435;55;1143487;-78
2021/10/30 16:59:00;;;;;;;30.83;16.63;;;;;;;14.14;55.91;100075.39;5230816;55;1143239;-77
2021/10/30 17:04:06;;;;;;;43.07;15.30;;;;;;;14.09;55.59;100079.83;5230323;55;1143294;-76
2021/10/30 17:09:12;;;;;;;36.97;21.40;;;;;;;14.02;55.12;100096.91;5239287;55;1143326;-75
2021/10/30 17:14:18;;;;;;;32.47;18.03;;;;;;;13.98;55.97;100099.52;5150773;56;1143221;-79
2021/10/30 17:19:23;;;;;;;36.13;15.60;;;;;;;13.89;56.11;100094.27;5066742;57;1143144;-74
2021/10/30 17:24:29;;;;;;;40.90;19.70;;;;;;;13.75;56.36;100088.95;5067624;57;1143501;-78
2021/10/30 17:29:35;;;;;;;38.13;19.37;;;;;;;13.64;57.03;100087.84;5146524;57;1143275;-78
2021/10/30 17:34:42;;;;;;;30.97;16.10;;;;;;;13.52;57.34;100092.53;5134398;57;1143295;-77
2021/10/30 17:39:48;;;;;;;35.60;21.53;;;;;;;13.45;57.33;100089.27;4983130;58;1143306;-77
2021/10/30 17:44:53;;;;;;;26.80;15.43;;;;;;;13.34;57.26;100092.96;4984546;58;1143410;-77
2021/10/30 17:49:59;;;;;;;40.17;16.63;;;;;;;13.30;57.61;100078.30;4984320;58;1143302;-78
2021/10/30 17:55:08;;;;;;;22.90;12.97;;;;;;;13.23;57.64;100091.34;4984363;58;1143312;-77
2021/10/30 18:00:14;;;;;;;33.03;15.37;;;;;;;13.18;57.64;100098.06;4984224;59;1143395;-77
2021/10/30 18:05:24;;;;;;;30.03;13.97;;;;;;;13.14;57.80;100097.48;4984259;59;1143401;-78
2021/10/30 18:10:30;;;;;;;30.00;16.63;;;;;;;13.12;57.62;100107.44;5035098;57;1143292;-77
2021/10/30 18:15:39;;;;;;;25.60;13.00;;;;;;;13.13;57.49;100109.11;4988546;58;1143236;-77
2021/10/30 18:20:46;;;;;;;27.47;14.80;;;;;;;13.15;57.51;100103.66;4907940;59;1143288;-77
2021/10/30 18:25:52;;;;;;;26.50;17.47;;;;;;;13.15;57.38;100103.17;4941650;58;1143341;-76
2021/10/30 18:30:58;;;;;;;25.15;13.35;;;;;;;13.17;57.15;100106.52;4988163;58;1143281;-78
2021/10/30 18:36:05;;;;;;;29.20;12.30;;;;;;;13.23;56.91;100107.77;5035011;58;1143193;-77
2021/10/30 18:41:11;;;;;;;30.77;12.40;;;;;;;13.33;56.34;100104.08;5010797;58;1143290;-77
2021/10/30 18:46:16;;;;;;;34.30;17.60;;;;;;;13.43;55.77;100105.88;4994394;58;1143201;-76
2021/10/30 18:51:23;;;;;;;14.70;8.83;;;;;;;13.50;56.25;100121.55;4986393;58;1143235;-76
2021/10/30 18:56:29;;;;;;;22.13;11.47;;;;;;;13.56;56.05;100126.29;5086135;57;1141254;-77
2021/10/30 19:01:35;;;;;;;18.17;10.03;;;;;;;13.61;55.68;100126.66;5163635;57;1143246;-76
2021/10/30 19:06:40;;;;;;;22.43;12.87;;;;;;;13.63;55.36;100126.02;5163674;57;1143607;-75
2021/10/30 19:11:48;;;;;;;18.90;11.97;;;;;;;13.65;55.12;100122.23;5149168;56;1143221;-77
2021/10/30 19:16:54;;;;;;;21.77;12.27;;;;;;;13.67;55.30;100136.71;5131189;57;1143280;-76
2021/10/30 19:22:00;;;;;;;20.33;11.73;;;;;;;13.62;55.31;100129.66;5139471;57;1143445;-75
2021/10/30 19:27:06;;;;;;;22.47;9.03;;;;;;;13.56;55.52;100132.44;5131390;57;1143216;-75
2021/10/30 19:32:12;;;;;;;27.90;13.87;;;;;;;13.52;55.56;100128.39;5139694;57;1141430;-75
2021/10/30 19:37:18;;;;;;;25.60;11.07;;;;;;;13.47;55.49;100125.33;5147912;56;1141108;-75
2021/10/30 19:42:24;;;;;;;22.10;10.77;;;;;;;13.42;56.12;100130.27;5115662;56;1141255;-75
2021/10/30 19:47:30;;;;;;;30.33;15.53;;;;;;;13.35;56.17;100130.01;5098051;57;1141156;-76
2021/10/30 19:52:36;;;;;;;33.17;16.07;;;;;;;13.29;56.49;100134.56;5102059;57;1141072;-76
2021/10/30 19:57:44;;;;;;;32.23;19.77;;;;;;;13.25;56.61;100141.17;5099870;57;1141129;-75
2021/10/30 20:02:50;;;;;;;40.63;17.50;;;;;;;13.17;56.54;100149.00;5099319;57;1141112;-75
2021/10/30 20:07:56;;;;;;;31.57;19.27;;;;;;;13.09;56.67;100148.87;5100389;57;1141116;-75
2021/10/30 20:13:03;;;;;;;25.53;11.53;;;;;;;13.00;56.90;100143.92;5101344;57;1141223;-76
2021/10/30 20:18:09;;;;;;;20.97;11.33;;;;;;;12.95;57.04;100137.39;5169714;56;1141059;-74
2021/10/30 20:23:16;;;;;;;25.73;12.00;;;;;;;12.86;57.06;100149.68;5184257;56;1141466;-75
2021/10/30 20:28:22;;;;;;;45.43;24.67;;;;;;;12.77;57.17;100153.69;5184904;56;1141078;-75
2021/10/30 20:33:27;;;;;;;36.03;20.67;;;;;;;12.70;57.39;100157.38;5183080;56;1141145;-76
2021/10/30 20:38:33;;;;;;;28.73;17.57;;;;;;;12.62;57.09;100159.43;5182499;56;1141335;-75
2021/10/30 20:43:39;;;;;;;21.75;11.88;;;;;;;12.59;57.32;100158.87;5186456;56;1141163;-75
2021/10/30 20:48:45;;;;;;;21.70;11.23;;;;;;;12.56;57.39;100158.66;5185666;56;1141153;-75
2021/10/30 20:53:50;;;;;;;21.70;10.30;;;;;;;12.52;57.52;100168.38;5182629;56;1141091;-75
2021/10/30 20:58:58;;;;;;;33.47;20.00;;;;;;;12.47;57.31;100168.80;5185913;56;1141114;-75
2021/10/30 21:04:04;;;;;;;53.53;33.20;;;;;;;12.46;57.38;100171.09;5187182;56;1139347;-76
2021/10/30 21:09:10;;;;;;;25.50;11.20;;;;;;;12.42;57.45;100164.38;5183175;56;1139040;-76
2021/10/30 21:14:17;;;;;;;18.25;10.63;;;;;;;12.35;57.32;100163.77;5207303;56;1143546;-77
2021/10/30 21:19:23;;;;;;;25.40;13.43;;;;;;;12.28;57.40;100178.89;5103910;56;1143406;-77
2021/10/30 21:24:31;;;;;;;34.03;20.77;;;;;;;12.23;57.59;100194.37;5188279;56;1143184;-76
2021/10/30 21:29:37;;;;;;;56.10;36.40;;;;;;;12.18;57.55;100195.77;5188271;56;1143168;-77
2021/10/30 21:34:42;;;;;;;26.35;9.25;;;;;;;12.15;57.62;100207.97;5190681;56;1143314;-76
2021/10/30 21:39:49;;;;;;;15.10;8.10;;;;;;;12.08;57.53;100212.97;5188433;56;1141240;-78
2021/10/30 21:44:56;;;;;;;16.63;9.37;;;;;;;12.01;57.56;100214.98;5190482;56;1141400;-78
2021/10/30 21:50:02;;;;;;;17.43;9.90;;;;;;;11.94;57.51;100227.92;5189767;56;1141274;-78
2021/10/30 21:55:09;;;;;;;28.37;10.00;;;;;;;11.89;57.51;100227.03;5192733;56;1141031;-77
2021/10/30 22:00:27;;;;;;;21.27;9.70;;;;;;;11.84;57.55;100229.23;5188123;56;1143212;-77
2021/10/30 22:05:33;;;;;;;18.50;9.60;;;;;;;11.80;57.41;100233.11;5194142;56;1141234;-78
2021/10/30 22:10:40;;;;;;;21.48;10.80;;;;;;;11.79;57.33;100225.30;5187228;56;1141459;-77
2021/10/30 22:15:46;;;;;;;23.33;8.10;;;;;;;11.79;57.42;100233.24;5191058;56;1143184;-78
2021/10/30 22:20:52;;;;;;;16.43;7.70;;;;;;;11.75;57.31;100236.64;5188392;56;1141061;-77
2021/10/30 22:25:57;;;;;;;15.77;9.03;;;;;;;11.72;57.38;100237.37;5192720;56;1141163;-77
2021/10/30 22:31:03;;;;;;;13.73;8.37;;;;;;;11.68;57.33;100239.94;5186356;56;1141069;-78
2021/10/30 22:36:09;;;;;;;16.83;8.93;;;;;;;11.64;57.45;100236.70;5188396;56;1141141;-78
2021/10/30 22:41:15;;;;;;;18.93;8.40;;;;;;;11.61;57.44;100244.42;5184594;56;1141082;-77
2021/10/30 22:46:21;;;;;;;16.20;8.63;;;;;;;11.58;57.73;100247.36;5186490;56;1141623;-78
2021/10/30 22:51:27;;;;;;;14.83;9.10;;;;;;;11.51;57.79;100245.36;5185710;56;1141082;-78